Sunday, March 01, 2015
08:28 UTC
  |  Log In   |  Register Free
Airport Search:

Foothills Regional Airport
(KMRN)

Foothills Regional Airport Diagram
No Airport Diagram Available

FAA data valid effective January 08, 2015 - March 05, 2015 (unless otherwise noted).

 
 
 
 
 
 
 
 
 
 
 
 
 
 

Current Aviation Weather for Foothills Regional Airport (KMRN)

The most recent METAR observation for KMRN was updated at: 0822
METAR Summary (Translated METAR)
KMRN
010815Z AUTO 00000KT 10SM -RA OVC030 00/M05 A3063 RMK AO2 T00021055
KHKY
010753Z AUTO 06004KT 10SM OVC029 M01/M06 A3058 RMK AO2 UPB16E51 SLP354 P0000 T10061056
(11.8 nm SE from KMRN)
KFQD
010755Z AUTO 00000KT 10SM OVC029 01/M02 A3061 RMK AO2 T00061023
(28.3 nm SW from KMRN)
TAF Summary (Translated TAF)
KHKY
(11.8 nm SE from KMRN)
010532Z 0106/0206 04004KT P6SM FEW040 SCT120 TEMPO 0109/0111 00000KT OVC021 FM011100 03003KT 4SM -FZRA BR OVC021 FM011300 03003KT 4SM -FZRA BR OVC017 FM011500 35003KT 2SM -RA BR OVC017 FM011900 VRB03KT P6SM OVC013 FM020300 22003KT P6SM BKN006
  Airport Weather Conditions for KMRN

 Current Weather at MRN
32° F
Overcast
North winds at 0.0 mph
MRN NOAA Radar

Pressure: 30.64 in
Humidity: 65%
Wind: Calm
Dew Point: 21.9°F
Visibility: 10.00 mi


Airport Weather Forecast for KMRN

Translated METAR and TAF for KMRN
Translated METAR for KMRN (0827 UTC 01 March 2015)
found at http://aviationweather.gov/adds/metars/
 
METAR text: KMRN 010815Z AUTO 00000KT 10SM -RA OVC030 00/M05 A3063 RMK AO2 T00021055
Conditions at: KMRN (MORGANTON/LENOIR, NC, US) observed 0815 UTC 01 March 2015
Temperature: 0.2°C (32°F)
Dewpoint: -5.5°C (22°F) [RH = 65%]
Pressure (altimeter): 30.63 inches Hg (1037.3 mb)
Winds: calm
Visibility: 10 or more miles (16+ km)
Ceiling: 3000 feet AGL
Clouds: overcast cloud deck at 3000 feet AGL
Weather: -RA  (light rain)
Translated TAF for KMRN

There is no translated TAF available for this airport

Find All Airport Services Find A Hotel Find A Rental Car Find A Golf Course Find A Restaurant $100 Hamburger



FBO's on the Field
FBO Company Facility Photos Services Transportation Aviation Fuel Prices: Prices include tax
Catering Weather Repair Courtesy Rental Type 100LL JetA JetA+ MOGAS 8087
 
Foothills Aviation

This FBO has not yet been rated
FS:Shell
Last Updated: Feb-24
Login to update fuel prices
SS:
Contact Foothills AviationMore FBO Information
 
Add another FBO Facility Photos Catering Weather Repair Courtesy Rental Type 100LL JetA JetA+ MOGAS 8087
Services Transportation Aviation Fuel Prices: Prices include tax


model-print
model-print
model-print
model-print